Time;durP1;ratioP1;P1;durP2;ratioP2;P2;SDS_P1;SDS_P2;PMS_P1;PMS_P2;Temp;Humidity;BMP_temperature;BMP_pressure;BME280_temperature;BME280_humidity;BME280_pressure;Samples;Min_cycle;Max_cycle;Signal;HPM_P1;HPM_P2
2022/12/29 00:02:15;;;;;;;5.80;5.20;;;10.20;99.90;;;;;;5034565;28;20032;-86
2022/12/29 00:04:40;;;;;;;5.15;4.65;;;10.00;99.90;;;;;;5024284;28;20037;-83
2022/12/29 00:07:06;;;;;;;5.28;4.78;;;10.00;99.90;;;;;;5030041;28;20525;-85
2022/12/29 00:09:33;;;;;;;5.47;4.97;;;10.00;99.90;;;;;;5032245;28;20037;-83
2022/12/29 00:11:59;;;;;;;5.90;5.05;;;10.00;99.90;;;;;;5045221;28;20037;-86
2022/12/29 00:17:09;;;;;;;5.80;4.70;;;10.00;99.90;;;;;;5051067;28;20041;-84
2022/12/29 00:36:12;;;;;;;6.57;5.53;;;10.10;99.90;;;;;;5048778;28;20158;-86
2022/12/29 00:44:12;;;;;;;8.45;5.72;;;10.20;99.90;;;;;;5050246;28;20123;-84
2022/12/29 00:46:39;;;;;;;7.60;5.30;;;10.20;99.90;;;;;;5031444;28;20415;-86
2022/12/29 00:51:52;;;;;;;5.88;5.28;;;10.30;99.90;;;;;;5045412;28;20083;-88
2022/12/29 00:54:18;;;;;;;6.60;5.38;;;10.20;99.90;;;;;;5049648;28;20348;-81
2022/12/29 00:56:46;;;;;;;6.07;5.28;;;10.30;99.90;;;;;;5037768;28;20056;-85
2022/12/29 00:59:11;;;;;;;5.80;5.20;;;10.30;99.90;;;;;;5052204;28;20525;-82
2022/12/29 01:01:38;;;;;;;6.50;5.35;;;10.30;99.90;;;;;;5054744;28;20037;-85
2022/12/29 01:04:04;;;;;;;6.07;5.15;;;10.30;99.90;;;;;;5037479;28;20029;-85
2022/12/29 01:06:30;;;;;;;6.25;5.65;;;10.30;99.90;;;;;;5037151;28;20029;-83
2022/12/29 01:11:40;;;;;;;6.63;4.82;;;10.40;99.90;;;;;;5044434;28;20511;-83
2022/12/29 01:14:06;;;;;;;5.75;5.15;;;10.30;99.90;;;;;;5042506;28;20098;-85
2022/12/29 01:16:31;;;;;;;5.43;4.85;;;10.40;99.90;;;;;;5054366;28;20044;-86
2022/12/29 01:18:57;;;;;;;5.30;4.80;;;10.30;99.90;;;;;;5039917;28;20041;-84
2022/12/29 01:21:22;;;;;;;5.97;4.90;;;10.30;99.90;;;;;;5039965;28;20171;-85
2022/12/29 01:23:48;;;;;;;5.25;4.47;;;10.30;99.90;;;;;;5032154;28;20108;-86
2022/12/29 01:26:16;;;;;;;6.30;5.10;;;10.30;99.90;;;;;;5053166;28;20036;-86
2022/12/29 01:28:42;;;;;;;6.60;5.32;;;10.30;99.90;;;;;;5040945;28;20079;-84
2022/12/29 01:31:13;;;;;;;5.43;4.80;;;10.30;99.90;;;;;;5031087;28;20044;-83
2022/12/29 01:33:39;;;;;;;8.07;4.90;;;10.30;99.90;;;;;;5047301;28;20119;-84
2022/12/29 01:36:09;;;;;;;5.72;4.93;;;10.30;99.90;;;;;;5052833;28;20106;-84
2022/12/29 01:38:37;;;;;;;7.43;5.18;;;10.30;99.90;;;;;;5049580;28;20052;-85
2022/12/29 01:41:04;;;;;;;5.95;4.95;;;10.30;99.90;;;;;;5032171;28;20052;-84
2022/12/29 01:43:46;;;;;;;5.68;4.60;;;10.30;99.90;;;;;;5046322;28;20037;-84
2022/12/29 01:46:36;;;;;;;7.53;4.47;;;10.30;99.90;;;;;;5043063;28;20033;-83
2022/12/29 01:49:07;;;;;;;5.43;4.75;;;10.30;99.90;;;;;;5047193;28;20036;-84
2022/12/29 01:51:38;;;;;;;6.35;4.88;;;10.20;99.90;;;;;;5042175;28;20449;-85
2022/12/29 01:54:08;;;;;;;7.07;5.15;;;10.20;99.90;;;;;;5052808;28;20037;-85
2022/12/29 01:56:34;;;;;;;6.70;5.20;;;10.10;99.90;;;;;;5043162;28;20495;-83
2022/12/29 01:59:08;;;;;;;7.35;4.90;;;10.10;99.90;;;;;;5044325;28;20062;-85
2022/12/29 02:01:34;;;;;;;5.65;4.75;;;10.10;99.90;;;;;;5053374;28;20095;-84
2022/12/29 02:04:00;;;;;;;6.38;4.68;;;10.10;99.90;;;;;;5048042;28;20487;-86
2022/12/29 02:06:35;;;;;;;7.78;4.25;;;10.10;99.90;;;;;;5026574;28;20172;-86
2022/12/29 02:09:00;;;;;;;5.78;4.20;;;10.10;99.90;;;;;;5029532;28;20047;-84
2022/12/29 02:11:28;;;;;;;4.82;3.80;;;10.10;99.90;;;;;;5053577;28;20506;-85
2022/12/29 02:13:54;;;;;;;4.43;3.50;;;10.10;99.90;;;;;;5053674;28;20109;-84
2022/12/29 02:16:25;;;;;;;6.35;3.78;;;10.20;99.90;;;;;;5028170;28;20502;-84
2022/12/29 02:19:14;;;;;;;5.75;3.70;;;10.20;99.90;;;;;;5052057;28;20043;-86
2022/12/29 02:21:57;;;;;;;4.50;3.60;;;10.20;99.90;;;;;;5035569;28;20040;-88
2022/12/29 02:25:00;;;;;;;5.25;3.50;;;10.20;99.90;;;;;;5029334;28;20041;-85
2022/12/29 02:27:53;;;;;;;3.65;2.80;;;10.30;99.90;;;;;;5035920;28;20037;-84
2022/12/29 02:30:38;;;;;;;3.75;2.75;;;10.30;99.90;;;;;;5052677;28;20037;-84
2022/12/29 02:33:41;;;;;;;4.20;2.75;;;10.40;99.90;;;;;;5052797;28;20120;-87
2022/12/29 02:36:36;;;;;;;4.53;2.80;;;10.40;99.90;;;;;;5052629;28;20056;-85
2022/12/29 02:39:05;;;;;;;;;;;10.40;99.90;;;;;;5037293;28;20065;-85
2022/12/29 02:41:44;;;;;;;4.45;2.50;;;10.40;99.90;;;;;;5047584;28;20429;-86
2022/12/29 02:44:16;;;;;;;5.97;2.47;;;10.40;99.90;;;;;;5024705;28;20116;-85
2022/12/29 02:46:58;;;;;;;4.35;2.35;;;10.40;99.90;;;;;;5051602;28;20091;-85
2022/12/29 02:49:44;;;;;;;3.50;2.58;;;10.40;99.90;;;;;;5050488;28;20072;-85
2022/12/29 02:52:22;;;;;;;4.88;2.50;;;10.40;99.90;;;;;;5047688;28;20040;-83
2022/12/29 02:54:49;;;;;;;3.70;2.65;;;10.40;99.90;;;;;;5040997;28;20037;-86
2022/12/29 02:57:29;;;;;;;3.75;2.63;;;10.40;99.90;;;;;;5049846;28;20041;-84
2022/12/29 03:00:14;;;;;;;3.47;2.20;;;10.40;99.90;;;;;;5034906;28;20086;-84
2022/12/29 03:02:39;;;;;;;3.25;2.22;;;10.40;99.90;;;;;;5049303;28;20040;-83
2022/12/29 03:05:10;;;;;;;2.90;2.28;;;10.40;99.90;;;;;;5050044;28;20033;-84
2022/12/29 03:07:48;;;;;;;3.00;2.25;;;10.40;99.90;;;;;;5048240;28;20033;-82
2022/12/29 03:10:36;;;;;;;4.25;2.33;;;10.40;99.90;;;;;;5049101;28;20037;-84
2022/12/29 03:16:31;;;;;;;3.28;2.30;;;10.30;99.90;;;;;;5032425;28;20083;-84
2022/12/29 03:19:04;;;;;;;3.88;2.17;;;10.30;99.90;;;;;;5047091;28;20392;-84
2022/12/29 03:24:28;;;;;;;5.05;2.20;;;10.30;99.90;;;;;;5044935;28;20045;-86
2022/12/29 03:26:58;;;;;;;3.42;2.17;;;10.30;99.90;;;;;;5049519;28;20033;-83
2022/12/29 03:29:26;;;;;;;4.28;1.98;;;10.30;99.90;;;;;;5046542;28;20049;-83
2022/12/29 03:31:53;;;;;;;2.78;1.80;;;10.30;99.90;;;;;;5045952;28;20045;-83
2022/12/29 03:34:21;;;;;;;3.50;1.80;;;10.30;99.90;;;;;;5046985;28;20113;-85
2022/12/29 03:37:11;;;;;;;4.80;1.77;;;10.30;99.90;;;;;;5043879;28;20044;-86
2022/12/29 03:39:37;;;;;;;2.63;1.40;;;10.20;99.90;;;;;;5027554;28;20037;-83
2022/12/29 03:42:06;;;;;;;1.90;1.50;;;10.20;99.90;;;;;;5049479;28;20100;-83
2022/12/29 03:44:36;;;;;;;2.40;1.58;;;10.20;99.90;;;;;;5020504;28;20028;-85
2022/12/29 03:47:03;;;;;;;4.13;1.63;;;10.20;99.90;;;;;;5048694;28;20124;-86
2022/12/29 03:49:28;;;;;;;3.97;1.67;;;10.20;99.90;;;;;;5029722;28;20086;-85
2022/12/29 03:51:54;;;;;;;2.50;1.55;;;10.10;99.90;;;;;;5030024;28;20041;-81
2022/12/29 03:54:19;;;;;;;4.38;1.83;;;10.10;99.90;;;;;;5045262;28;20371;-82
2022/12/29 03:56:45;;;;;;;3.33;1.80;;;10.10;99.90;;;;;;5044914;28;20489;-84
2022/12/29 03:59:10;;;;;;;4.55;1.80;;;10.10;99.90;;;;;;5039794;28;20045;-83
2022/12/29 04:01:36;;;;;;;5.50;2.00;;;10.00;99.90;;;;;;5041026;28;20115;-85
2022/12/29 04:04:02;;;;;;;4.03;1.90;;;10.10;99.90;;;;;;5044427;28;20403;-84
2022/12/29 04:06:27;;;;;;;3.00;1.77;;;10.10;99.90;;;;;;5031611;28;20041;-83
2022/12/29 04:08:53;;;;;;;5.47;2.08;;;10.10;99.90;;;;;;5048792;28;20498;-84
2022/12/29 04:11:18;;;;;;;2.78;1.80;;;10.10;99.90;;;;;;5046812;28;20068;-82
2022/12/29 04:13:44;;;;;;;3.50;1.70;;;10.20;99.90;;;;;;5047854;28;20387;-82
2022/12/29 04:16:09;;;;;;;4.60;1.70;;;10.20;99.90;;;;;;5050843;28;20430;-82
2022/12/29 04:18:35;;;;;;;3.08;1.48;;;10.20;99.90;;;;;;5046954;28;20052;-82
2022/12/29 04:21:00;;;;;;;5.32;1.83;;;10.20;99.90;;;;;;5050190;28;20040;-82
2022/12/29 04:23:27;;;;;;;4.50;1.60;;;10.20;99.90;;;;;;5048675;28;20032;-83
2022/12/29 04:25:53;;;;;;;4.57;1.65;;;10.20;99.90;;;;;;5046998;28;20037;-84
2022/12/29 04:28:19;;;;;;;3.78;1.60;;;10.10;99.90;;;;;;5025261;28;20068;-83
2022/12/29 04:30:45;;;;;;;7.95;1.20;;;10.20;99.90;;;;;;5045394;28;20137;-80
2022/12/29 04:33:10;;;;;;;6.97;1.48;;;10.20;99.90;;;;;;5046723;28;20041;-84
2022/12/29 04:35:36;;;;;;;7.03;1.55;;;10.20;99.90;;;;;;5032865;28;20402;-83
2022/12/29 04:38:02;;;;;;;4.65;1.02;;;10.20;99.90;;;;;;5050400;28;20454;-83
2022/12/29 04:40:27;;;;;;;3.40;1.20;;;10.20;99.90;;;;;;5034401;28;20127;-82
2022/12/29 04:42:53;;;;;;;2.95;0.95;;;10.10;99.90;;;;;;5054098;28;20037;-81
2022/12/29 04:45:18;;;;;;;4.65;1.00;;;10.20;99.90;;;;;;5053405;28;20033;-81
2022/12/29 04:47:44;;;;;;;4.40;1.17;;;10.10;99.90;;;;;;5054349;28;20521;-82
2022/12/29 04:50:09;;;;;;;4.28;1.00;;;10.00;99.90;;;;;;5034979;28;20048;-80
2022/12/29 04:52:35;;;;;;;9.52;1.70;;;10.10;99.90;;;;;;5053337;28;20033;-81
2022/12/29 04:55:01;;;;;;;5.25;1.13;;;10.00;99.90;;;;;;5036245;28;20040;-81
2022/12/29 04:57:27;;;;;;;4.53;1.20;;;9.90;99.90;;;;;;5045659;28;20033;-80
2022/12/29 04:59:53;;;;;;;4.03;1.23;;;10.00;99.90;;;;;;5047967;28;20072;-82
2022/12/29 05:02:18;;;;;;;6.88;1.45;;;10.00;99.90;;;;;;5052629;28;20041;-84
2022/12/29 05:04:44;;;;;;;5.82;1.40;;;9.90;99.90;;;;;;5052486;28;20041;-82
2022/12/29 05:07:09;;;;;;;5.13;1.40;;;9.90;99.90;;;;;;5036716;28;20086;-84
2022/12/29 05:09:35;;;;;;;7.07;1.48;;;9.80;99.90;;;;;;5051800;28;20074;-81
2022/12/29 05:12:01;;;;;;;9.35;1.55;;;9.80;99.90;;;;;;5052758;28;20037;-82
2022/12/29 05:14:26;;;;;;;5.18;1.30;;;9.70;99.90;;;;;;5035601;28;20068;-81
2022/12/29 05:16:52;;;;;;;6.93;1.83;;;9.70;99.90;;;;;;5049159;28;20040;-84
2022/12/29 05:19:17;;;;;;;9.10;1.52;;;9.70;99.90;;;;;;5053135;28;20511;-84
2022/12/29 05:21:43;;;;;;;6.65;1.40;;;9.60;99.90;;;;;;5037234;28;20029;-83
2022/12/29 05:24:08;;;;;;;7.43;1.40;;;9.60;99.90;;;;;;5050120;28;20037;-81
2022/12/29 05:26:34;;;;;;;7.95;1.60;;;9.70;99.90;;;;;;5052391;28;20091;-85
2022/12/29 05:29:00;;;;;;;8.18;1.63;;;9.70;99.90;;;;;;5051736;28;20037;-85
2022/12/29 05:31:26;;;;;;;8.48;1.60;;;9.60;99.90;;;;;;5036343;28;20510;-84
2022/12/29 05:33:51;;;;;;;9.63;1.55;;;9.50;99.90;;;;;;5052222;28;20041;-83
2022/12/29 05:36:17;;;;;;;4.45;1.50;;;9.50;99.90;;;;;;5053119;28;20132;-83
2022/12/29 05:38:43;;;;;;;8.10;1.67;;;9.50;99.90;;;;;;5053262;28;20498;-82
2022/12/29 05:41:09;;;;;;;5.10;1.70;;;9.50;99.90;;;;;;5053257;28;20124;-84
2022/12/29 05:43:34;;;;;;;8.82;1.65;;;9.50;99.90;;;;;;5036046;28;20033;-84
2022/12/29 05:46:00;;;;;;;8.68;1.67;;;9.50;99.90;;;;;;5052730;28;20410;-85
2022/12/29 05:48:25;;;;;;;6.40;1.40;;;9.50;99.90;;;;;;5051098;28;20044;-83
2022/12/29 05:50:51;;;;;;;7.93;1.70;;;9.40;99.90;;;;;;5052816;28;20032;-83
2022/12/29 05:53:17;;;;;;;9.50;1.83;;;9.40;99.90;;;;;;5052905;28;20051;-84
2022/12/29 05:55:44;;;;;;;9.48;2.42;;;9.50;99.90;;;;;;5053153;28;20041;-82
2022/12/29 05:58:09;;;;;;;9.98;1.73;;;9.50;99.90;;;;;;5052175;28;20114;-86
2022/12/29 06:00:35;;;;;;;8.90;1.98;;;9.50;99.90;;;;;;5036438;28;20314;-86
2022/12/29 06:03:01;;;;;;;4.72;1.45;;;9.40;99.90;;;;;;5051766;28;20037;-85
2022/12/29 06:05:26;;;;;;;9.85;1.88;;;9.40;99.90;;;;;;5051961;28;20107;-84
2022/12/29 06:07:52;;;;;;;9.77;1.90;;;9.40;99.90;;;;;;5052033;28;20032;-82
2022/12/29 06:10:17;;;;;;;6.47;1.55;;;9.40;99.90;;;;;;5052222;28;20199;-85
2022/12/29 06:12:43;;;;;;;7.65;1.45;;;9.40;99.90;;;;;;5051184;28;20494;-83
2022/12/29 06:15:09;;;;;;;5.90;1.48;;;9.40;99.90;;;;;;5051887;28;20036;-83
2022/12/29 06:17:35;;;;;;;4.72;1.25;;;9.40;99.90;;;;;;5034294;28;20028;-83
2022/12/29 06:20:01;;;;;;;8.35;1.45;;;9.40;99.90;;;;;;5033944;28;20033;-84
2022/12/29 06:22:26;;;;;;;5.45;1.73;;;9.40;99.90;;;;;;5027478;28;20059;-84
2022/12/29 06:24:51;;;;;;;11.48;1.67;;;9.40;99.90;;;;;;5047780;28;20733;-85
2022/12/29 06:27:17;;;;;;;9.85;1.65;;;9.40;99.90;;;;;;5029381;28;20513;-82
2022/12/29 06:29:43;;;;;;;6.97;1.42;;;9.30;99.90;;;;;;5047791;28;20040;-82
2022/12/29 06:32:09;;;;;;;12.82;1.80;;;9.30;99.90;;;;;;5051763;28;20407;-84
2022/12/29 06:34:35;;;;;;;7.05;1.50;;;9.30;99.90;;;;;;5035042;28;20075;-83
2022/12/29 06:37:01;;;;;;;10.27;1.92;;;9.30;99.90;;;;;;5049141;28;20064;-85
2022/12/29 06:39:27;;;;;;;10.23;1.65;;;9.20;99.90;;;;;;5049590;28;20091;-84
2022/12/29 06:41:53;;;;;;;9.82;2.03;;;9.20;99.90;;;;;;5049689;28;20049;-83
2022/12/29 06:44:22;;;;;;;12.25;1.98;;;9.20;99.90;;;;;;5050089;28;20037;-83
2022/12/29 06:46:48;;;;;;;9.20;2.05;;;9.20;99.90;;;;;;5043947;28;20033;-84
2022/12/29 06:49:13;;;;;;;10.05;1.90;;;9.20;99.90;;;;;;5031196;28;20040;-84
2022/12/29 06:51:39;;;;;;;14.40;2.03;;;9.20;99.90;;;;;;5051342;28;20163;-83
2022/12/29 06:54:05;;;;;;;10.90;1.92;;;9.20;99.90;;;;;;5049587;28;20090;-84
2022/12/29 06:56:30;;;;;;;12.20;2.03;;;9.20;99.90;;;;;;5052205;28;20037;-81
2022/12/29 06:58:56;;;;;;;12.43;1.90;;;9.20;99.90;;;;;;5050186;28;20055;-83
2022/12/29 07:01:22;;;;;;;7.97;1.50;;;9.20;99.90;;;;;;5032529;28;20522;-82
2022/12/29 07:03:47;;;;;;;11.18;2.40;;;9.20;99.90;;;;;;5050105;28;20139;-82
2022/12/29 07:06:13;;;;;;;12.32;1.90;;;9.20;99.90;;;;;;5048680;28;20090;-82
2022/12/29 07:08:38;;;;;;;10.88;1.75;;;9.20;99.90;;;;;;5032998;28;20090;-82
2022/12/29 07:11:05;;;;;;;11.18;2.08;;;9.30;99.90;;;;;;5060084;28;20524;-81
2022/12/29 07:13:30;;;;;;;13.50;1.90;;;9.30;99.90;;;;;;5043238;28;20090;-82
2022/12/29 07:15:56;;;;;;;11.95;2.40;;;9.40;99.90;;;;;;5030163;28;20033;-82
2022/12/29 07:18:21;;;;;;;9.95;1.90;;;9.40;99.90;;;;;;5045218;28;20466;-81
2022/12/29 07:20:47;;;;;;;12.50;2.17;;;9.40;99.90;;;;;;5043774;28;20584;-84
2022/12/29 07:23:13;;;;;;;12.45;2.55;;;9.40;99.90;;;;;;5028591;28;20067;-82
2022/12/29 07:25:41;;;;;;;8.60;1.77;;;9.40;99.90;;;;;;5049710;28;20033;-82
2022/12/29 07:28:06;;;;;;;10.40;2.10;;;9.40;99.90;;;;;;5044929;28;20045;-83
2022/12/29 07:30:32;;;;;;;11.30;2.35;;;9.40;99.90;;;;;;5045856;28;20043;-83
2022/12/29 07:32:58;;;;;;;9.82;1.90;;;9.40;99.90;;;;;;5041498;28;20082;-85
2022/12/29 07:35:23;;;;;;;13.32;2.08;;;9.40;99.90;;;;;;5044791;28;20038;-81
2022/12/29 07:37:49;;;;;;;14.57;2.03;;;9.40;99.90;;;;;;5036797;28;20032;-84
2022/12/29 07:40:15;;;;;;;10.85;2.00;;;9.50;99.90;;;;;;5041635;28;20102;-83
2022/12/29 07:42:40;;;;;;;11.13;2.47;;;9.40;99.90;;;;;;5042912;28;20112;-83
2022/12/29 07:45:06;;;;;;;11.80;1.65;;;9.50;99.90;;;;;;5035918;28;20045;-84
2022/12/29 07:47:32;;;;;;;7.10;1.73;;;9.40;99.90;;;;;;5047145;28;20033;-81
2022/12/29 07:49:57;;;;;;;9.85;2.00;;;9.50;99.90;;;;;;5047364;28;20124;-82
2022/12/29 07:52:23;;;;;;;9.15;2.08;;;9.50;99.90;;;;;;5045813;28;20052;-83
2022/12/29 07:54:48;;;;;;;10.50;2.00;;;9.50;99.90;;;;;;5045711;28;20491;-82
2022/12/29 07:57:14;;;;;;;9.13;2.10;;;9.50;99.90;;;;;;5014496;28;20033;-82
2022/12/29 07:59:39;;;;;;;12.88;1.90;;;9.50;99.90;;;;;;5054551;28;20110;-82
2022/12/29 08:02:05;;;;;;;13.68;2.00;;;9.50;99.90;;;;;;5034406;28;20065;-81
2022/12/29 08:04:31;;;;;;;9.35;2.45;;;9.40;99.90;;;;;;5050448;28;20134;-82
2022/12/29 08:06:56;;;;;;;11.23;2.20;;;9.40;99.90;;;;;;5050084;28;20044;-83
2022/12/29 08:09:22;;;;;;;10.63;2.00;;;9.40;99.90;;;;;;5032051;28;20041;-82
2022/12/29 08:11:47;;;;;;;7.60;1.92;;;9.40;99.90;;;;;;5045474;28;20127;-82
2022/12/29 08:14:13;;;;;;;12.48;2.30;;;9.50;99.90;;;;;;5029462;28;20067;-84
2022/12/29 08:16:39;;;;;;;10.82;1.77;;;9.40;99.90;;;;;;5041039;28;20092;-80
2022/12/29 08:19:04;;;;;;;12.27;2.35;;;9.50;99.90;;;;;;5049651;28;20072;-81
2022/12/29 08:21:31;;;;;;;8.05;1.90;;;9.50;99.90;;;;;;5047428;28;20033;-82
2022/12/29 08:23:57;;;;;;;11.40;2.03;;;9.50;99.90;;;;;;5050471;28;20033;-82
2022/12/29 08:26:22;;;;;;;14.27;2.60;;;9.50;99.90;;;;;;5023170;28;20056;-83
2022/12/29 08:28:48;;;;;;;10.93;1.92;;;9.50;99.90;;;;;;5046547;28;20052;-82
2022/12/29 08:31:13;;;;;;;10.18;2.10;;;9.50;99.90;;;;;;5032124;28;20690;-82
2022/12/29 08:33:39;;;;;;;14.68;2.45;;;9.50;99.90;;;;;;5050046;28;20032;-81
2022/12/29 08:36:06;;;;;;;13.73;2.42;;;9.50;99.90;;;;;;5032835;28;20721;-81
2022/12/29 08:38:33;;;;;;;12.50;2.33;;;9.50;99.90;;;;;;5044093;28;20104;-83
2022/12/29 08:41:00;;;;;;;11.82;2.33;;;9.40;99.90;;;;;;5045162;28;20052;-81
2022/12/29 08:43:27;;;;;;;13.88;2.30;;;9.30;99.90;;;;;;5049379;28;20045;-83
2022/12/29 08:45:53;;;;;;;18.48;2.85;;;9.20;99.90;;;;;;5044560;28;20507;-80
2022/12/29 08:48:19;;;;;;;13.48;2.97;;;9.20;99.90;;;;;;5049902;28;20048;-80
2022/12/29 08:50:46;;;;;;;15.80;2.85;;;9.10;99.90;;;;;;5049602;28;20090;-81
2022/12/29 08:53:11;;;;;;;16.20;2.90;;;9.20;99.90;;;;;;5049482;28;20037;-81
2022/12/29 08:55:37;;;;;;;11.80;2.70;;;9.10;99.90;;;;;;5048465;28;20033;-82
2022/12/29 08:58:03;;;;;;;12.63;2.50;;;9.20;99.90;;;;;;5049730;28;20049;-82
2022/12/29 09:00:28;;;;;;;17.88;3.08;;;9.10;99.90;;;;;;5048987;28;20041;-82
2022/12/29 09:02:53;;;;;;;16.90;2.58;;;9.10;99.90;;;;;;5051032;28;20041;-82
2022/12/29 09:05:19;;;;;;;15.20;3.35;;;9.10;99.90;;;;;;5042714;28;20037;-81
2022/12/29 09:07:45;;;;;;;15.30;3.20;;;9.10;99.90;;;;;;5047333;28;20278;-82
2022/12/29 09:10:10;;;;;;;14.52;2.35;;;9.20;99.90;;;;;;5029961;28;20113;-82
2022/12/29 09:12:36;;;;;;;19.05;3.35;;;9.10;99.90;;;;;;5040618;28;20081;-81
2022/12/29 09:15:01;;;;;;;14.95;2.85;;;9.20;99.90;;;;;;5043706;28;20041;-80
2022/12/29 09:17:45;;;;;;;14.30;2.65;;;9.20;99.90;;;;;;5021029;28;20086;-81
2022/12/29 09:20:20;;;;;;;19.13;2.45;;;9.20;99.90;;;;;;5055320;28;20033;-82
2022/12/29 09:22:47;;;;;;;18.20;2.75;;;9.20;99.90;;;;;;5047468;28;20056;-82
2022/12/29 09:25:13;;;;;;;12.75;2.92;;;9.20;99.90;;;;;;5038531;28;20041;-83
2022/12/29 09:27:39;;;;;;;14.63;2.97;;;9.20;99.90;;;;;;5055131;28;20086;-80
2022/12/29 09:30:07;;;;;;;14.27;2.28;;;9.20;99.90;;;;;;5055373;28;20041;-81
2022/12/29 09:32:33;;;;;;;18.08;2.83;;;9.20;99.90;;;;;;5052907;28;20123;-83
2022/12/29 09:34:59;;;;;;;13.90;2.47;;;9.10;99.90;;;;;;5049928;28;20041;-83
2022/12/29 09:37:24;;;;;;;12.40;2.42;;;9.20;99.90;;;;;;5034902;28;20045;-82
2022/12/29 09:39:50;;;;;;;11.43;2.40;;;9.10;99.90;;;;;;5035315;28;20066;-85
2022/12/29 09:42:40;;;;;;;13.77;3.05;;;9.10;99.90;;;;;;5047299;28;20120;-83
2022/12/29 09:45:29;;;;;;;12.77;2.85;;;9.10;99.90;;;;;;5049402;28;20025;-81
2022/12/29 09:47:54;;;;;;;13.98;2.70;;;9.00;99.90;;;;;;5045914;28;20037;-83
2022/12/29 09:50:20;;;;;;;13.38;2.20;;;9.00;99.90;;;;;;5028217;28;20084;-84
2022/12/29 09:53:14;;;;;;;14.35;2.53;;;9.10;99.90;;;;;;5045956;28;20037;-83
2022/12/29 09:55:51;;;;;;;9.40;2.13;;;9.10;99.90;;;;;;5020890;28;20045;-81
2022/12/29 09:58:32;;;;;;;14.85;2.70;;;9.20;99.90;;;;;;5042515;28;20048;-83
2022/12/29 10:01:07;;;;;;;11.55;2.47;;;9.10;99.90;;;;;;5040470;28;20037;-81
2022/12/29 10:03:53;;;;;;;11.77;2.63;;;9.10;99.90;;;;;;5053642;28;20037;-83
2022/12/29 10:06:27;;;;;;;12.98;2.10;;;9.10;99.90;;;;;;5051777;28;20471;-82
2022/12/29 10:09:01;;;;;;;15.30;3.05;;;9.10;99.90;;;;;;5037093;28;20040;-81
2022/12/29 10:11:41;;;;;;;9.98;2.47;;;9.10;99.90;;;;;;5052625;28;20067;-81
2022/12/29 10:14:28;;;;;;;11.75;2.17;;;9.10;99.90;;;;;;5054455;28;20452;-81
2022/12/29 10:17:23;;;;;;;14.52;1.92;;;9.00;99.90;;;;;;5036661;28;20467;-79
2022/12/29 10:20:27;;;;;;;12.07;2.60;;;9.00;99.90;;;;;;5040509;28;20033;-85
2022/12/29 10:23:19;;;;;;;10.93;2.80;;;8.90;99.90;;;;;;5045335;28;20047;-80
2022/12/29 10:25:46;;;;;;;9.68;2.13;;;8.80;99.90;;;;;;5050789;28;20055;-83
2022/12/29 10:28:33;;;;;;;13.75;2.03;;;8.80;99.90;;;;;;5051837;28;20045;-82
2022/12/29 10:31:01;;;;;;;13.48;2.22;;;8.70;99.90;;;;;;5047731;28;20045;-83
2022/12/29 10:33:37;;;;;;;14.70;2.15;;;8.60;99.90;;;;;;5048066;28;20422;-81
2022/12/29 10:36:17;;;;;;;11.25;1.88;;;8.60;99.90;;;;;;5050711;28;20044;-80
2022/12/29 10:38:58;;;;;;;7.70;1.70;;;8.60;99.90;;;;;;5047162;28;20037;-82
2022/12/29 10:42:01;;;;;;;12.90;2.72;;;8.60;99.90;;;;;;5041783;28;20041;-82
2022/12/29 10:44:30;;;;;;;12.57;1.90;;;8.50;99.90;;;;;;5040937;28;20059;-81
2022/12/29 10:47:00;;;;;;;9.73;2.53;;;8.50;99.90;;;;;;5043146;28;20407;-84
2022/12/29 10:49:28;;;;;;;12.27;2.10;;;8.50;99.90;;;;;;5041419;28;20071;-80
2022/12/29 10:51:57;;;;;;;12.27;2.53;;;8.50;99.90;;;;;;5043952;28;20126;-82
2022/12/29 10:55:21;;;;;;;17.35;2.83;;;8.50;99.90;;;;;;5042113;28;20041;-81
2022/12/29 10:57:48;;;;;;;11.43;2.93;;;8.60;99.90;;;;;;4979807;28;20085;-79
2022/12/29 11:00:17;;;;;;;13.57;2.38;;;8.60;99.90;;;;;;4983344;28;20038;-81
2022/12/29 11:03:09;;;;;;;15.60;2.72;;;8.70;99.90;;;;;;5014954;28;20136;-81
2022/12/29 11:06:01;;;;;;;12.20;2.70;;;8.80;99.90;;;;;;5049907;28;20131;-81
2022/12/29 11:08:33;;;;;;;21.08;3.03;;;8.90;99.90;;;;;;5041974;28;20036;-83
2022/12/29 11:11:04;;;;;;;18.58;3.05;;;8.90;99.90;;;;;;5040421;28;20041;-81
2022/12/29 11:13:32;;;;;;;17.70;3.25;;;9.00;99.90;;;;;;5041216;28;20053;-81
2022/12/29 11:15:59;;;;;;;14.65;4.05;;;9.10;99.90;;;;;;5041496;28;20499;-82
2022/12/29 11:18:39;;;;;;;19.40;3.15;;;9.10;99.90;;;;;;5043544;28;20056;-83
2022/12/29 11:21:24;;;;;;;17.15;3.38;;;9.20;99.90;;;;;;5042750;28;20503;-82
2022/12/29 11:24:02;;;;;;;17.90;2.92;;;9.30;99.90;;;;;;5047694;28;20182;-80
2022/12/29 11:26:29;;;;;;;19.10;3.28;;;9.30;99.90;;;;;;5042247;28;20032;-80
2022/12/29 11:29:03;;;;;;;16.20;2.88;;;9.30;99.90;;;;;;5019105;28;20041;-81
2022/12/29 11:31:29;;;;;;;19.88;3.65;;;9.30;99.90;;;;;;5038540;28;20076;-82
2022/12/29 11:33:55;;;;;;;19.67;3.28;;;9.30;99.90;;;;;;5045729;28;20486;-82
2022/12/29 11:36:23;;;;;;;15.80;3.45;;;9.30;99.90;;;;;;5045295;28;20059;-81
2022/12/29 11:38:54;;;;;;;15.95;2.85;;;9.40;99.90;;;;;;5044484;28;20092;-81
2022/12/29 11:41:29;;;;;;;19.50;3.55;;;9.40;99.90;;;;;;5020301;28;20120;-82
2022/12/29 11:43:58;;;;;;;20.80;2.70;;;9.40;99.90;;;;;;5042720;28;20094;-82
2022/12/29 11:46:29;;;;;;;16.70;2.58;;;9.40;99.90;;;;;;5043192;28;21402;-82
2022/12/29 11:48:59;;;;;;;16.55;3.17;;;9.40;99.90;;;;;;5038792;28;20400;-83
2022/12/29 11:51:29;;;;;;;18.60;3.10;;;9.50;99.90;;;;;;5043913;28;20056;-80
2022/12/29 11:54:00;;;;;;;19.40;3.15;;;9.60;99.90;;;;;;5041294;28;20115;-81
2022/12/29 11:56:46;;;;;;;20.52;3.22;;;9.60;99.90;;;;;;5044063;28;20040;-82
2022/12/29 11:59:37;;;;;;;17.27;2.90;;;9.60;99.90;;;;;;5041373;28;20057;-80
2022/12/29 12:02:36;;;;;;;19.83;3.47;;;9.70;99.90;;;;;;5029163;28;20041;-83
2022/12/29 12:05:10;;;;;;;19.35;2.88;;;9.70;99.90;;;;;;5038432;28;20128;-83
2022/12/29 12:07:45;;;;;;;17.23;3.92;;;9.80;99.90;;;;;;5022738;28;20045;-82
2022/12/29 12:10:22;;;;;;;21.17;4.13;;;9.80;99.90;;;;;;5044780;28;20037;-81
2022/12/29 12:13:08;;;;;;;18.92;3.60;;;9.80;99.90;;;;;;5045728;28;20036;-80
2022/12/29 12:16:05;;;;;;;17.80;3.08;;;9.70;99.90;;;;;;5047820;28;20045;-80
2022/12/29 12:18:47;;;;;;;18.77;3.22;;;9.60;99.90;;;;;;5037208;28;20048;-80
2022/12/29 12:21:45;;;;;;;19.15;3.00;;;9.50;99.90;;;;;;5041827;28;20040;-81
2022/12/29 12:24:44;;;;;;;17.98;3.17;;;9.60;99.90;;;;;;5033192;28;20159;-80
2022/12/29 12:27:28;;;;;;;20.83;3.42;;;9.60;99.90;;;;;;5039232;28;20060;-81
2022/12/29 12:30:09;;;;;;;17.83;3.28;;;9.50;99.90;;;;;;5023981;28;20055;-81
2022/12/29 12:32:44;;;;;;;18.30;3.05;;;9.40;99.90;;;;;;5040244;28;20033;-82
2022/12/29 12:35:14;;;;;;;18.25;3.10;;;9.30;99.90;;;;;;5041451;28;20041;-82
2022/12/29 12:38:14;;;;;;;15.40;3.15;;;9.30;99.90;;;;;;5023505;28;20087;-81
2022/12/29 12:40:59;;;;;;;18.55;2.83;;;9.30;99.90;;;;;;5051379;28;20114;-83
2022/12/29 12:43:44;;;;;;;16.50;2.95;;;9.40;99.90;;;;;;5040640;28;20053;-80
2022/12/29 12:46:31;;;;;;;15.20;3.03;;;9.40;99.90;;;;;;5040864;28;20037;-81
2022/12/29 12:49:27;;;;;;;16.05;2.80;;;9.40;99.90;;;;;;5036967;28;20032;-81
2022/12/29 12:52:25;;;;;;;12.52;2.20;;;9.50;99.90;;;;;;5063655;28;20041;-81
2022/12/29 12:55:37;;;;;;;8.65;1.90;;;9.50;99.90;;;;;;5046092;28;20047;-80
2022/12/29 12:58:40;;;;;;;14.98;2.20;;;9.60;99.90;;;;;;5014892;28;20183;-80
2022/12/29 13:01:24;;;;;;;8.18;1.65;;;9.60;99.90;;;;;;5045458;28;20155;-81
2022/12/29 13:04:00;;;;;;;;;;;9.60;99.90;;;;;;5028716;28;20114;-81
2022/12/29 13:07:11;;;;;;;10.60;1.40;;;9.60;99.90;;;;;;5052481;28;19948;-80
2022/12/29 13:10:21;;;;;;;7.32;1.90;;;9.60;99.90;;;;;;5046289;28;20627;-82
2022/12/29 13:13:06;;;;;;;12.50;1.85;;;9.60;99.90;;;;;;5031851;28;20039;-82
2022/12/29 13:15:58;;;;;;;8.25;1.60;;;9.80;99.90;;;;;;5045377;28;20106;-82
2022/12/29 13:18:54;;;;;;;9.40;1.85;;;9.90;99.90;;;;;;5046162;28;20562;-80
2022/12/29 13:21:31;;;;;;;8.30;1.80;;;9.80;99.90;;;;;;5048804;28;20036;-79
2022/12/29 13:24:02;;;;;;;10.90;1.70;;;9.70;99.90;;;;;;5046762;28;20529;-82
2022/12/29 13:26:35;;;;;;;8.98;1.80;;;9.60;99.90;;;;;;5050776;28;20047;-82
2022/12/29 13:29:17;;;;;;;10.60;1.80;;;9.50;99.90;;;;;;5049562;28;20045;-81
2022/12/29 13:32:17;;;;;;;13.82;2.03;;;9.40;99.90;;;;;;5045758;28;20037;-81
2022/12/29 13:35:01;;;;;;;8.65;2.15;;;9.40;99.90;;;;;;5047658;28;20068;-82
2022/12/29 13:37:29;;;;;;;11.45;2.45;;;9.30;99.90;;;;;;5047782;28;20125;-82
2022/12/29 13:39:59;;;;;;;8.40;1.52;;;9.30;99.90;;;;;;5027353;28;20036;-81
2022/12/29 13:42:26;;;;;;;11.55;1.80;;;9.30;99.90;;;;;;5040808;28;20116;-82
2022/12/29 13:45:11;;;;;;;15.70;2.72;;;9.40;99.90;;;;;;5036833;28;20430;-81
2022/12/29 13:47:52;;;;;;;12.32;2.03;;;9.40;99.90;;;;;;5038010;28;20029;-81
2022/12/29 13:50:21;;;;;;;9.52;1.80;;;9.40;99.90;;;;;;5044743;28;20041;-80
2022/12/29 13:53:40;;;;;;;13.82;2.05;;;9.50;99.90;;;;;;5044220;28;20056;-83